Time;durP1;ratioP1;P1;durP2;ratioP2;P2;SDS_P1;SDS_P2;PMS_P1;PMS_P2;Temp;Humidity;BMP_temperature;BMP_pressure;BME280_temperature;BME280_humidity;BME280_pressure;Samples;Min_cycle;Max_cycle;Signal;HPM_P1;HPM_P2
2022/07/22 00:01:46;;;;;;;2.77;2.30;;;18.20;99.90;;;;;;5035541;28;20486;-72
2022/07/22 00:04:12;;;;;;;3.13;2.83;;;18.10;99.90;;;;;;5031674;28;20464;-71
2022/07/22 00:06:39;;;;;;;6.37;2.60;;;18.10;99.90;;;;;;5034720;28;20480;-71
2022/07/22 00:09:07;;;;;;;3.07;2.17;;;18.10;99.90;;;;;;5030170;28;20754;-72
2022/07/22 00:11:37;;;;;;;2.87;2.13;;;18.00;99.90;;;;;;5032684;28;20500;-71
2022/07/22 00:14:04;;;;;;;9.20;2.03;;;18.00;99.90;;;;;;5029638;28;20524;-71
2022/07/22 00:16:31;;;;;;;3.73;3.40;;;17.90;99.90;;;;;;5031389;28;20464;-73
2022/07/22 00:18:59;;;;;;;3.33;2.27;;;17.80;99.90;;;;;;5036021;28;20964;-71
2022/07/22 00:21:26;;;;;;;5.30;2.00;;;17.80;99.90;;;;;;5035958;28;20486;-72
2022/07/22 00:23:53;;;;;;;1.80;1.50;;;17.80;99.90;;;;;;5034377;28;20456;-72
2022/07/22 00:26:21;;;;;;;1.70;1.40;;;17.90;99.90;;;;;;5036354;28;20452;-73
2022/07/22 00:28:49;;;;;;;1.67;1.50;;;17.90;99.90;;;;;;5035502;28;20479;-72
2022/07/22 00:31:19;;;;;;;4.57;1.80;;;17.90;99.90;;;;;;5036882;28;20571;-72
2022/07/22 00:33:46;;;;;;;1.60;1.47;;;18.00;99.90;;;;;;5033977;28;20492;-72
2022/07/22 00:36:13;;;;;;;2.50;1.90;;;17.90;99.90;;;;;;5041240;28;20455;-73
2022/07/22 00:38:40;;;;;;;4.70;1.73;;;17.90;99.90;;;;;;5033304;28;20453;-72
2022/07/22 00:41:07;;;;;;;4.43;1.90;;;17.90;99.90;;;;;;5027078;28;21128;-72
2022/07/22 00:43:53;;;;;;;2.10;1.80;;;17.80;99.90;;;;;;5040989;28;20460;-72
2022/07/22 00:46:20;;;;;;;3.13;2.20;;;17.70;99.90;;;;;;5036313;28;20467;-71
2022/07/22 00:48:47;;;;;;;2.37;2.03;;;17.70;99.90;;;;;;5035347;28;20498;-72
2022/07/22 00:51:14;;;;;;;3.80;2.00;;;17.70;99.90;;;;;;5041682;28;20485;-70
2022/07/22 00:53:41;;;;;;;2.97;2.47;;;17.80;99.90;;;;;;5036727;28;20460;-73
2022/07/22 00:56:08;;;;;;;5.03;2.20;;;17.80;99.90;;;;;;5036628;28;21012;-72
2022/07/22 00:58:35;;;;;;;2.00;1.57;;;17.70;99.90;;;;;;5033265;28;20456;-72
2022/07/22 01:01:03;;;;;;;2.67;1.90;;;17.70;99.90;;;;;;5038415;28;20490;-73
2022/07/22 01:03:30;;;;;;;2.57;2.13;;;17.90;99.90;;;;;;5034768;28;20472;-73
2022/07/22 01:05:57;;;;;;;3.73;1.83;;;17.90;99.90;;;;;;5029669;28;20435;-73
2022/07/22 01:08:24;;;;;;;2.70;2.10;;;17.80;99.90;;;;;;5039251;28;20480;-72
2022/07/22 01:10:51;;;;;;;2.30;2.00;;;17.80;99.90;;;;;;5038659;28;20488;-72
2022/07/22 01:13:18;;;;;;;2.57;1.80;;;17.90;99.90;;;;;;5030106;28;20562;-73
2022/07/22 01:15:45;;;;;;;2.77;2.13;;;18.00;99.90;;;;;;5038479;28;20459;-73
2022/07/22 01:18:13;;;;;;;2.97;1.97;;;18.00;99.90;;;;;;5036191;28;20467;-72
2022/07/22 01:20:42;;;;;;;2.70;2.50;;;17.90;99.90;;;;;;5036538;28;20480;-72
2022/07/22 01:23:09;;;;;;;2.90;1.80;;;17.80;99.90;;;;;;5038832;28;20464;-73
2022/07/22 01:25:35;;;;;;;2.47;2.00;;;17.90;99.90;;;;;;5036424;28;21064;-71
2022/07/22 01:28:02;;;;;;;3.10;1.90;;;17.80;99.90;;;;;;5037168;28;20460;-73
2022/07/22 01:30:29;;;;;;;6.80;2.50;;;17.90;99.90;;;;;;5036003;28;20483;-74
2022/07/22 01:32:56;;;;;;;2.63;2.37;;;17.90;99.90;;;;;;5035446;28;20503;-71
2022/07/22 01:35:23;;;;;;;2.63;2.43;;;18.00;99.90;;;;;;5037850;28;20461;-71
2022/07/22 01:37:51;;;;;;;3.03;2.33;;;17.90;99.90;;;;;;5036166;28;20456;-73
2022/07/22 01:40:18;;;;;;;2.73;2.30;;;18.00;99.90;;;;;;5033003;28;20476;-72
2022/07/22 01:42:45;;;;;;;3.60;2.50;;;18.00;99.90;;;;;;5038906;28;23114;-72
2022/07/22 01:45:12;;;;;;;5.03;3.50;;;18.00;99.90;;;;;;5034136;28;20455;-71
2022/07/22 01:47:38;;;;;;;8.40;4.20;;;17.90;99.90;;;;;;5036466;28;20448;-73
2022/07/22 01:50:09;;;;;;;8.73;3.03;;;17.80;99.90;;;;;;5036536;28;20517;-73
2022/07/22 01:52:36;;;;;;;4.40;2.50;;;17.90;99.90;;;;;;5034533;28;20456;-72
2022/07/22 01:55:06;;;;;;;3.83;2.77;;;17.90;99.90;;;;;;5032598;28;20460;-72
2022/07/22 01:57:32;;;;;;;5.37;3.20;;;17.80;99.90;;;;;;5039122;28;20609;-72
2022/07/22 01:59:59;;;;;;;4.60;2.80;;;17.90;99.90;;;;;;5034657;28;20463;-72
2022/07/22 02:02:26;;;;;;;4.37;2.93;;;18.00;99.90;;;;;;5039645;28;20460;-72
2022/07/22 02:04:53;;;;;;;4.70;3.40;;;18.10;99.90;;;;;;5040979;28;20475;-72
2022/07/22 02:07:20;;;;;;;7.00;3.90;;;18.00;99.90;;;;;;5037760;28;20472;-72
2022/07/22 02:09:47;;;;;;;3.67;2.80;;;17.90;99.90;;;;;;5040195;28;20476;-72
2022/07/22 02:12:15;;;;;;;6.43;2.80;;;18.00;99.90;;;;;;5039756;28;20491;-72
2022/07/22 02:14:42;;;;;;;5.47;3.63;;;18.00;99.90;;;;;;5037574;28;20965;-72
2022/07/22 02:17:09;;;;;;;4.27;2.73;;;18.00;99.90;;;;;;5041288;28;20475;-72
2022/07/22 02:19:36;;;;;;;5.37;2.50;;;18.10;99.90;;;;;;5038477;28;20456;-72
2022/07/22 02:22:03;;;;;;;4.40;3.40;;;18.00;99.90;;;;;;5036011;28;21148;-72
2022/07/22 02:24:30;;;;;;;2.97;2.47;;;18.00;99.90;;;;;;5036600;28;20460;-72
2022/07/22 02:26:57;;;;;;;7.90;4.50;;;18.00;99.90;;;;;;5044614;28;20555;-73
2022/07/22 02:29:25;;;;;;;3.40;3.10;;;18.10;99.90;;;;;;5041139;28;20477;-73
2022/07/22 02:31:52;;;;;;;7.30;3.10;;;18.00;99.90;;;;;;5036628;28;20579;-73
2022/07/22 02:34:19;;;;;;;3.03;2.20;;;17.90;99.90;;;;;;5041171;28;20487;-71
2022/07/22 02:36:46;;;;;;;6.03;3.50;;;17.80;99.90;;;;;;5038497;28;20464;-72
2022/07/22 02:39:13;;;;;;;3.60;3.30;;;17.80;99.90;;;;;;5038110;28;20460;-71
2022/07/22 02:41:40;;;;;;;4.50;2.40;;;17.70;99.90;;;;;;5039227;28;20530;-73
2022/07/22 02:44:07;;;;;;;4.17;2.70;;;17.80;99.90;;;;;;5034578;28;20467;-72
2022/07/22 02:46:35;;;;;;;5.87;3.17;;;17.80;99.90;;;;;;5039994;28;20470;-72
2022/07/22 02:49:05;;;;;;;3.77;2.70;;;17.90;99.90;;;;;;5036568;28;20571;-72
2022/07/22 02:51:32;;;;;;;3.77;2.60;;;17.90;99.90;;;;;;5029744;28;20869;-72
2022/07/22 02:53:59;;;;;;;3.20;2.50;;;18.10;99.90;;;;;;5034737;28;20459;-72
2022/07/22 02:56:28;;;;;;;4.23;2.63;;;18.10;99.90;;;;;;5037698;28;20460;-73
2022/07/22 02:58:55;;;;;;;3.27;2.20;;;18.10;99.90;;;;;;5043243;28;20456;-72
2022/07/22 03:01:22;;;;;;;2.87;1.97;;;17.90;99.90;;;;;;5037410;28;22326;-73
2022/07/22 03:03:50;;;;;;;3.93;2.63;;;17.90;99.90;;;;;;5033689;28;20534;-73
2022/07/22 03:06:17;;;;;;;5.70;3.83;;;17.80;99.90;;;;;;5037332;28;20466;-71
2022/07/22 03:08:44;;;;;;;3.37;2.73;;;17.80;99.90;;;;;;5031209;28;20556;-73
2022/07/22 03:11:11;;;;;;;5.20;2.53;;;17.90;99.90;;;;;;5034440;28;20487;-73
2022/07/22 03:13:38;;;;;;;5.07;3.17;;;17.90;99.90;;;;;;5038644;28;20501;-72
2022/07/22 03:16:05;;;;;;;2.80;1.50;;;17.80;99.90;;;;;;5035767;28;20495;-73
2022/07/22 03:18:33;;;;;;;6.90;2.40;;;17.60;99.90;;;;;;5036917;28;20499;-73
2022/07/22 03:21:01;;;;;;;7.77;2.30;;;17.50;99.90;;;;;;5038654;28;20502;-73
2022/07/22 03:23:28;;;;;;;7.40;3.17;;;17.50;99.90;;;;;;5035633;28;20452;-71
2022/07/22 03:25:56;;;;;;;3.67;2.40;;;17.50;99.90;;;;;;5033962;28;20471;-72
2022/07/22 03:28:23;;;;;;;4.70;3.23;;;17.50;99.90;;;;;;5031540;28;20584;-73
2022/07/22 03:30:50;;;;;;;6.90;2.57;;;17.40;99.90;;;;;;5036198;28;20498;-72
2022/07/22 03:33:17;;;;;;;4.37;2.70;;;17.50;99.90;;;;;;5039419;28;20456;-72
2022/07/22 03:35:44;;;;;;;3.43;2.60;;;17.50;99.90;;;;;;5040711;28;20464;-73
2022/07/22 03:38:12;;;;;;;2.63;2.07;;;17.50;99.90;;;;;;5040773;28;20437;-72
2022/07/22 03:40:39;;;;;;;4.30;1.83;;;17.60;99.90;;;;;;5033657;28;20486;-72
2022/07/22 03:43:05;;;;;;;5.67;3.00;;;17.40;99.90;;;;;;5043141;28;20460;-73
2022/07/22 03:45:32;;;;;;;3.07;1.80;;;17.50;99.90;;;;;;5034397;28;21160;-73
2022/07/22 03:47:59;;;;;;;2.50;2.13;;;17.40;99.90;;;;;;5028698;28;20519;-73
2022/07/22 03:50:26;;;;;;;2.93;2.23;;;17.40;99.90;;;;;;5031347;28;20488;-73
2022/07/22 03:52:53;;;;;;;3.00;1.70;;;17.60;99.90;;;;;;5033285;28;20468;-72
2022/07/22 03:55:22;;;;;;;5.33;2.87;;;17.60;99.90;;;;;;5036859;28;20986;-73
2022/07/22 03:57:48;;;;;;;5.43;2.03;;;17.70;99.90;;;;;;5036715;28;20453;-71
2022/07/22 04:00:16;;;;;;;4.77;2.50;;;17.70;99.90;;;;;;5045098;28;20462;-73
2022/07/22 04:02:43;;;;;;;3.17;2.20;;;17.60;99.90;;;;;;5033973;28;20468;-73
2022/07/22 04:05:10;;;;;;;10.93;2.53;;;17.40;99.90;;;;;;5032622;28;20464;-72
2022/07/22 04:07:36;;;;;;;4.90;2.07;;;17.60;99.90;;;;;;5032462;28;20463;-73
2022/07/22 04:10:09;;;;;;;2.90;2.43;;;17.60;99.90;;;;;;5040628;28;21191;-73
2022/07/22 04:12:39;;;;;;;3.03;2.13;;;17.70;99.90;;;;;;5063287;22;20502;-74
2022/07/22 04:15:09;;;;;;;5.30;2.20;;;17.80;99.90;;;;;;5053363;28;20952;-74
2022/07/22 04:17:37;;;;;;;4.80;2.63;;;17.80;99.90;;;;;;5059373;28;20470;-74
2022/07/22 04:20:05;;;;;;;8.40;2.63;;;17.70;99.90;;;;;;5058510;28;20451;-74
2022/07/22 04:22:32;;;;;;;2.93;2.03;;;17.60;99.90;;;;;;5030613;28;20483;-73
2022/07/22 04:24:59;;;;;;;3.03;2.37;;;17.60;99.90;;;;;;5032978;28;20559;-74
2022/07/22 04:27:26;;;;;;;6.00;2.10;;;17.60;99.90;;;;;;5035223;28;20456;-74
2022/07/22 04:29:54;;;;;;;5.83;2.13;;;17.60;99.90;;;;;;5027773;28;20512;-74
2022/07/22 04:32:23;;;;;;;6.33;2.90;;;17.60;99.90;;;;;;5033027;28;20480;-73
2022/07/22 04:34:50;;;;;;;4.53;2.27;;;17.60;99.90;;;;;;5040580;28;20460;-73
2022/07/22 04:37:17;;;;;;;4.77;1.80;;;17.50;99.90;;;;;;5036447;28;20467;-73
2022/07/22 04:39:44;;;;;;;3.90;2.20;;;17.60;99.90;;;;;;5038621;28;20460;-73
2022/07/22 04:42:11;;;;;;;3.53;2.10;;;17.50;99.90;;;;;;5038730;28;20511;-73
2022/07/22 04:44:38;;;;;;;9.07;2.87;;;17.50;99.90;;;;;;5048025;28;20467;-73
2022/07/22 04:47:06;;;;;;;6.43;2.37;;;17.60;99.90;;;;;;5046872;28;20502;-73
2022/07/22 04:49:33;;;;;;;3.40;1.97;;;17.70;99.90;;;;;;5047635;28;20989;-73
2022/07/22 04:52:00;;;;;;;4.23;2.63;;;17.80;99.90;;;;;;5045127;28;20478;-73
2022/07/22 04:54:27;;;;;;;5.50;2.50;;;17.90;99.90;;;;;;5036868;28;20466;-73
2022/07/22 04:56:53;;;;;;;5.53;2.10;;;18.00;99.90;;;;;;5043631;28;20538;-73
2022/07/22 04:59:20;;;;;;;7.60;3.90;;;18.10;99.90;;;;;;5041110;28;20559;-73
2022/07/22 05:01:47;;;;;;;7.37;3.37;;;18.20;99.90;;;;;;5053694;28;20556;-74
2022/07/22 05:04:15;;;;;;;3.73;2.47;;;18.10;99.90;;;;;;5061676;28;20451;-72
2022/07/22 05:06:42;;;;;;;3.60;2.57;;;18.00;99.90;;;;;;5065016;28;20542;-72
2022/07/22 05:09:09;;;;;;;6.07;3.20;;;17.90;99.90;;;;;;5069692;28;20512;-73
2022/07/22 05:11:36;;;;;;;4.40;2.40;;;17.80;99.90;;;;;;5051387;28;20484;-73
2022/07/22 05:14:03;;;;;;;4.83;2.87;;;17.90;99.90;;;;;;5032992;28;20571;-73
2022/07/22 05:16:30;;;;;;;4.00;3.40;;;17.80;99.90;;;;;;5039621;28;20452;-73
2022/07/22 05:18:56;;;;;;;5.57;2.47;;;17.80;99.90;;;;;;5047875;28;20984;-73
2022/07/22 05:21:25;;;;;;;4.20;2.70;;;17.80;99.90;;;;;;5039987;28;20476;-73
2022/07/22 05:23:51;;;;;;;3.93;2.87;;;17.80;99.90;;;;;;5038280;28;20470;-73
2022/07/22 05:26:18;;;;;;;13.87;3.23;;;17.90;99.90;;;;;;5043590;28;20464;-73
2022/07/22 05:28:45;;;;;;;5.33;2.67;;;18.00;99.90;;;;;;5047203;28;21078;-74
2022/07/22 05:31:12;;;;;;;6.07;3.37;;;18.10;99.90;;;;;;5043116;28;20582;-73
2022/07/22 05:33:39;;;;;;;8.03;2.43;;;18.20;99.90;;;;;;5045946;28;20444;-73
2022/07/22 05:36:08;;;;;;;3.77;2.83;;;18.10;99.90;;;;;;5049688;28;20493;-73
2022/07/22 05:38:37;;;;;;;7.00;2.80;;;18.00;99.90;;;;;;5044634;28;20915;-73
2022/07/22 05:41:04;;;;;;;4.30;2.50;;;18.10;99.90;;;;;;5044117;28;21545;-73
2022/07/22 05:43:30;;;;;;;8.60;2.40;;;18.30;99.90;;;;;;5035490;28;20470;-72
2022/07/22 05:45:57;;;;;;;7.50;2.73;;;18.40;99.90;;;;;;5040652;28;20459;-72
2022/07/22 05:48:24;;;;;;;6.00;2.27;;;18.70;99.90;;;;;;5041851;28;20451;-72
2022/07/22 05:50:51;;;;;;;4.63;2.67;;;18.80;99.90;;;;;;5041023;28;20566;-72
2022/07/22 05:53:18;;;;;;;5.60;2.33;;;18.80;99.90;;;;;;5041354;28;20470;-72
2022/07/22 05:55:46;;;;;;;10.30;2.40;;;18.80;99.90;;;;;;5036649;28;20463;-73
2022/07/22 05:58:13;;;;;;;4.70;3.00;;;18.80;99.90;;;;;;5037921;28;20460;-72
2022/07/22 06:00:41;;;;;;;4.90;2.37;;;18.70;99.90;;;;;;5043177;28;20471;-72
2022/07/22 06:03:08;;;;;;;5.00;2.70;;;18.80;99.90;;;;;;5043181;28;20474;-72
2022/07/22 06:05:35;;;;;;;5.67;2.40;;;18.80;99.90;;;;;;5032142;28;20467;-72
2022/07/22 06:08:02;;;;;;;6.83;2.43;;;18.90;99.90;;;;;;5030854;28;20471;-73
2022/07/22 06:10:29;;;;;;;3.13;2.10;;;18.90;99.90;;;;;;5038814;28;20502;-72
2022/07/22 06:12:58;;;;;;;4.50;2.57;;;18.90;99.90;;;;;;5039984;28;21466;-72
2022/07/22 06:15:24;;;;;;;4.20;2.40;;;19.00;99.90;;;;;;5045766;28;20911;-73
2022/07/22 06:17:51;;;;;;;6.30;2.43;;;19.00;99.90;;;;;;5040745;28;20467;-72
2022/07/22 06:20:18;;;;;;;3.57;2.20;;;19.10;99.90;;;;;;5046864;28;20498;-73
2022/07/22 06:22:45;;;;;;;2.10;1.83;;;19.30;99.90;;;;;;5045359;28;20444;-72
2022/07/22 06:25:12;;;;;;;3.63;2.50;;;19.40;99.90;;;;;;5045521;28;20527;-74
2022/07/22 06:27:39;;;;;;;2.43;2.23;;;19.40;99.90;;;;;;5049119;28;20589;-73
2022/07/22 06:30:09;;;;;;;8.57;1.80;;;19.80;99.90;;;;;;5046274;28;20494;-73
2022/07/22 06:32:36;;;;;;;1.93;1.40;;;20.20;99.90;;;;;;5046403;28;20475;-73
2022/07/22 06:35:03;;;;;;;2.73;1.67;;;20.00;99.90;;;;;;5038332;28;21836;-73
2022/07/22 06:37:30;;;;;;;8.93;3.20;;;19.80;99.90;;;;;;5044475;28;20440;-73
2022/07/22 06:39:57;;;;;;;3.00;1.73;;;19.90;99.90;;;;;;5039063;28;20463;-73
2022/07/22 06:42:23;;;;;;;4.10;1.60;;;19.80;99.90;;;;;;5044705;28;20533;-72
2022/07/22 06:44:51;;;;;;;5.00;1.50;;;20.00;99.90;;;;;;5037421;28;20554;-73
2022/07/22 06:47:20;;;;;;;2.87;1.63;;;19.90;99.90;;;;;;5041818;28;20462;-72
2022/07/22 06:49:47;;;;;;;2.23;1.40;;;19.90;99.90;;;;;;5046482;28;20486;-72
2022/07/22 06:52:13;;;;;;;2.00;1.73;;;19.90;99.90;;;;;;5045152;28;20476;-73
2022/07/22 06:54:40;;;;;;;3.77;1.87;;;20.00;99.90;;;;;;5043522;28;20555;-76
2022/07/22 06:57:07;;;;;;;7.00;1.97;;;20.30;99.90;;;;;;5033106;28;20456;-72
2022/07/22 06:59:34;;;;;;;2.20;2.00;;;20.40;99.90;;;;;;5041492;28;20514;-74
2022/07/22 07:02:01;;;;;;;2.63;1.43;;;20.30;99.90;;;;;;5045699;28;20583;-73
2022/07/22 07:04:29;;;;;;;3.07;2.00;;;20.20;99.90;;;;;;5044535;28;20534;-73
2022/07/22 07:06:56;;;;;;;5.77;1.67;;;20.50;99.90;;;;;;5044213;28;20479;-73
2022/07/22 07:09:23;;;;;;;2.37;1.40;;;20.80;99.90;;;;;;5045128;28;20452;-73
2022/07/22 07:11:50;;;;;;;1.60;1.40;;;20.90;99.90;;;;;;5044924;28;20487;-72
2022/07/22 07:14:17;;;;;;;3.17;1.40;;;20.70;99.90;;;;;;5039861;28;20464;-73
2022/07/22 07:16:44;;;;;;;2.33;1.60;;;20.70;99.90;;;;;;5043521;28;20554;-73
2022/07/22 07:19:11;;;;;;;1.77;1.43;;;20.70;99.90;;;;;;5044878;28;20952;-73
2022/07/22 07:21:39;;;;;;;5.00;1.77;;;20.70;99.90;;;;;;5045125;28;20471;-73
2022/07/22 07:24:06;;;;;;;1.97;1.50;;;20.70;99.90;;;;;;5045158;28;20468;-73
2022/07/22 07:26:33;;;;;;;4.30;1.23;;;20.70;99.90;;;;;;5043742;28;20857;-73
2022/07/22 07:29:00;;;;;;;2.57;1.37;;;20.70;99.90;;;;;;5044010;28;20550;-73
2022/07/22 07:31:30;;;;;;;6.57;6.07;;;20.50;99.90;;;;;;5043462;28;20498;-73
2022/07/22 07:33:56;;;;;;;2.10;1.63;;;20.40;99.90;;;;;;5045668;28;20474;-73
2022/07/22 07:36:24;;;;;;;2.00;1.63;;;20.10;99.90;;;;;;5042343;28;20448;-74
2022/07/22 07:38:52;;;;;;;5.30;1.67;;;20.10;99.90;;;;;;5042050;28;20448;-74
2022/07/22 07:41:19;;;;;;;3.27;1.60;;;20.20;99.90;;;;;;5041706;28;20555;-73
2022/07/22 07:43:46;;;;;;;2.70;1.40;;;20.20;99.90;;;;;;5044784;28;20487;-73
2022/07/22 07:46:12;;;;;;;2.63;1.60;;;20.30;99.90;;;;;;5042206;28;20488;-73
2022/07/22 07:48:40;;;;;;;2.70;1.50;;;20.20;99.90;;;;;;5045364;28;20535;-73
2022/07/22 07:51:07;;;;;;;2.23;1.33;;;20.30;99.90;;;;;;5041936;28;20899;-74
2022/07/22 07:53:34;;;;;;;1.60;1.30;;;20.20;99.90;;;;;;5045692;28;20450;-73
2022/07/22 07:56:02;;;;;;;5.63;1.90;;;20.10;99.90;;;;;;5043611;28;20479;-73
2022/07/22 07:58:29;;;;;;;5.70;2.10;;;20.10;99.90;;;;;;5041141;28;20455;-74
2022/07/22 08:00:56;;;;;;;2.53;1.83;;;20.00;99.90;;;;;;5046248;28;20474;-74
2022/07/22 08:03:23;;;;;;;7.87;1.67;;;20.20;99.90;;;;;;5044626;28;20444;-73
2022/07/22 08:05:50;;;;;;;2.63;1.57;;;20.00;99.90;;;;;;5044355;28;22233;-74
2022/07/22 08:08:17;;;;;;;7.10;1.83;;;20.10;99.90;;;;;;5045086;28;20570;-73
2022/07/22 08:10:44;;;;;;;1.70;1.60;;;20.10;99.90;;;;;;5044837;28;20491;-74
2022/07/22 08:13:13;;;;;;;2.83;1.73;;;20.30;99.90;;;;;;5044654;28;20458;-73
2022/07/22 08:15:39;;;;;;;1.80;1.40;;;20.10;99.90;;;;;;5043955;28;21212;-74
2022/07/22 08:18:06;;;;;;;3.00;2.03;;;20.00;99.90;;;;;;5045837;28;20499;-74
2022/07/22 08:20:33;;;;;;;2.30;1.70;;;20.00;99.90;;;;;;5044794;28;20447;-72
2022/07/22 08:23:00;;;;;;;3.70;2.10;;;19.60;99.90;;;;;;5042312;28;20547;-73
2022/07/22 08:25:27;;;;;;;2.70;2.13;;;19.80;99.90;;;;;;5045175;28;20459;-73
2022/07/22 08:27:54;;;;;;;3.70;1.97;;;20.00;99.90;;;;;;5044542;28;20458;-72
2022/07/22 08:30:26;;;;;;;2.80;1.50;;;20.00;99.90;;;;;;5043419;28;20471;-74
2022/07/22 08:32:54;;;;;;;7.33;2.57;;;19.90;99.90;;;;;;5045014;28;20468;-74
2022/07/22 08:35:21;;;;;;;2.90;1.80;;;20.00;99.90;;;;;;5044605;28;20463;-74
2022/07/22 08:37:48;;;;;;;2.30;1.70;;;20.00;99.90;;;;;;5044732;28;20462;-73
2022/07/22 08:40:17;;;;;;;3.10;1.87;;;19.90;99.90;;;;;;5040121;28;20452;-74
2022/07/22 08:42:47;;;;;;;2.67;2.20;;;20.00;99.90;;;;;;5044477;28;20527;-74
2022/07/22 08:45:14;;;;;;;2.53;2.20;;;20.20;99.90;;;;;;5041475;28;20455;-74
2022/07/22 08:47:45;;;;;;;3.60;2.10;;;20.30;99.90;;;;;;5042004;28;20818;-74
2022/07/22 08:50:12;;;;;;;3.37;2.50;;;20.40;99.90;;;;;;5046505;28;20470;-74
2022/07/22 08:52:39;;;;;;;3.53;2.50;;;20.30;99.90;;;;;;5043799;28;20479;-73
2022/07/22 08:55:08;;;;;;;5.30;2.80;;;20.10;99.90;;;;;;5042931;28;20481;-73
2022/07/22 08:57:36;;;;;;;4.37;2.50;;;20.30;99.90;;;;;;5048431;28;20452;-73
2022/07/22 09:00:10;;;;;;;9.90;3.90;;;20.50;99.90;;;;;;5047326;28;20490;-73
2022/07/22 09:02:38;;;;;;;4.50;3.33;;;20.60;99.90;;;;;;5046738;28;20482;-73
2022/07/22 09:05:09;;;;;;;10.83;3.50;;;20.40;99.90;;;;;;5047081;28;20453;-73
2022/07/22 09:07:37;;;;;;;10.00;5.17;;;20.50;99.90;;;;;;5047719;28;20516;-73
2022/07/22 09:10:06;;;;;;;10.50;6.80;;;20.70;99.90;;;;;;5049398;28;20502;-73
2022/07/22 09:12:34;;;;;;;10.87;7.27;;;20.70;99.90;;;;;;5049185;28;21004;-73
2022/07/22 09:15:03;;;;;;;8.67;5.47;;;20.40;99.90;;;;;;5045701;28;20590;-74
2022/07/22 09:17:34;;;;;;;9.50;5.53;;;20.60;99.90;;;;;;5049585;28;20440;-74
2022/07/22 09:20:02;;;;;;;8.97;5.23;;;20.50;99.90;;;;;;5045913;28;20535;-74
2022/07/22 09:22:38;;;;;;;10.10;5.70;;;20.60;99.90;;;;;;5047700;28;20977;-72
2022/07/22 09:25:23;;;;;;;10.27;5.60;;;20.80;99.90;;;;;;5044682;28;20467;-72
2022/07/22 09:27:51;;;;;;;7.40;4.70;;;20.80;99.90;;;;;;5044842;28;20933;-72
2022/07/22 09:30:21;;;;;;;5.50;4.00;;;21.00;99.90;;;;;;5044400;28;20452;-73
2022/07/22 09:32:49;;;;;;;5.47;3.63;;;21.20;99.90;;;;;;5046998;28;20490;-73
2022/07/22 09:35:16;;;;;;;3.87;2.73;;;21.20;99.90;;;;;;5047074;28;20688;-73
2022/07/22 09:37:52;;;;;;;4.27;2.70;;;20.90;99.90;;;;;;5039188;28;20466;-73
2022/07/22 09:40:21;;;;;;;4.27;3.00;;;20.40;99.90;;;;;;5043741;28;20471;-75
2022/07/22 09:42:50;;;;;;;10.33;3.37;;;20.20;99.90;;;;;;5044010;28;20433;-73
2022/07/22 09:45:18;;;;;;;3.70;2.67;;;20.00;99.90;;;;;;5045779;28;20444;-73
2022/07/22 09:47:46;;;;;;;4.23;2.53;;;20.00;99.90;;;;;;5044577;28;20444;-73
2022/07/22 09:50:19;;;;;;;4.40;3.10;;;20.30;99.90;;;;;;5047545;28;20455;-73
2022/07/22 09:52:47;;;;;;;5.00;2.90;;;20.60;99.90;;;;;;5047433;28;20562;-73
2022/07/22 09:55:17;;;;;;;4.83;3.03;;;20.90;99.90;;;;;;5045869;28;20491;-73
2022/07/22 09:57:45;;;;;;;2.60;2.27;;;20.90;99.90;;;;;;5043980;28;20494;-73
2022/07/22 10:00:13;;;;;;;6.40;2.90;;;20.70;99.90;;;;;;5047633;28;20483;-73
2022/07/22 10:02:45;;;;;;;5.93;3.20;;;20.80;99.90;;;;;;5044892;28;20452;-73
2022/07/22 10:05:13;;;;;;;4.97;2.97;;;20.80;99.90;;;;;;5041861;28;20483;-72
2022/07/22 10:07:42;;;;;;;5.10;2.93;;;20.90;99.90;;;;;;5046545;28;20452;-72
2022/07/22 10:10:10;;;;;;;3.00;2.20;;;21.00;99.90;;;;;;5036813;28;20469;-72
2022/07/22 10:12:42;;;;;;;3.73;2.37;;;20.80;99.90;;;;;;5057027;22;20492;-71
2022/07/22 10:15:11;;;;;;;5.40;3.33;;;20.90;99.90;;;;;;5055210;28;20466;-71
2022/07/22 10:17:39;;;;;;;9.20;5.03;;;20.90;99.90;;;;;;5057214;28;20546;-71
2022/07/22 10:20:08;;;;;;;5.77;2.80;;;20.80;99.90;;;;;;5052716;28;20471;-72
2022/07/22 10:22:55;;;;;;;5.20;2.93;;;20.80;99.90;;;;;;5053652;28;20843;-73
2022/07/22 10:25:23;;;;;;;3.03;2.73;;;20.90;99.90;;;;;;5061665;28;20526;-72
2022/07/22 10:27:54;;;;;;;4.17;3.13;;;20.80;99.90;;;;;;5055096;28;20470;-72
2022/07/22 10:30:24;;;;;;;7.43;4.40;;;20.80;99.90;;;;;;5052791;28;20458;-73
2022/07/22 10:33:11;;;;;;;7.47;4.60;;;20.80;99.90;;;;;;5055451;28;21103;-71
2022/07/22 10:35:51;;;;;;;12.10;5.10;;;21.00;99.90;;;;;;5049744;28;20467;-72
2022/07/22 10:38:19;;;;;;;7.37;3.87;;;20.90;99.90;;;;;;5057114;28;20506;-72
2022/07/22 10:40:55;;;;;;;5.87;4.40;;;21.10;99.90;;;;;;5057085;28;20554;-72
2022/07/22 10:43:24;;;;;;;4.23;3.03;;;21.20;99.90;;;;;;5059479;28;20489;-71
2022/07/22 10:45:54;;;;;;;5.97;3.43;;;21.10;99.90;;;;;;5056125;28;20469;-71
2022/07/22 10:48:24;;;;;;;7.23;4.17;;;20.80;99.90;;;;;;5059845;28;20454;-71
2022/07/22 10:51:09;;;;;;;5.27;4.47;;;20.70;99.90;;;;;;5056550;28;20459;-72
2022/07/22 10:53:54;;;;;;;5.17;3.93;;;21.00;99.90;;;;;;5057945;28;20459;-72
2022/07/22 10:56:26;;;;;;;7.60;4.90;;;21.10;99.90;;;;;;5058850;28;20458;-72
2022/07/22 10:58:56;;;;;;;5.43;3.37;;;21.30;99.90;;;;;;5057881;28;20463;-72
2022/07/22 11:01:29;;;;;;;11.73;4.40;;;21.20;99.90;;;;;;5060295;28;20452;-72
2022/07/22 11:04:07;;;;;;;6.83;4.63;;;20.70;99.90;;;;;;5058062;28;20463;-72
2022/07/22 11:06:35;;;;;;;5.83;4.97;;;20.90;99.90;;;;;;5056851;28;20461;-72
2022/07/22 11:09:04;;;;;;;8.10;5.00;;;21.10;99.90;;;;;;5057421;28;20455;-72
2022/07/22 11:11:39;;;;;;;5.83;4.63;;;21.10;99.90;;;;;;5057467;28;20572;-71
2022/07/22 11:14:18;;;;;;;4.70;4.03;;;21.40;99.90;;;;;;5063026;28;21080;-71
2022/07/22 11:16:46;;;;;;;7.50;4.97;;;21.30;99.90;;;;;;5058840;28;20461;-71
2022/07/22 11:19:13;;;;;;;7.83;4.90;;;21.50;99.90;;;;;;5056343;28;20568;-71
2022/07/22 11:21:41;;;;;;;6.93;4.70;;;21.70;99.90;;;;;;5054604;28;20483;-73
2022/07/22 11:24:09;;;;;;;9.80;5.90;;;21.80;99.90;;;;;;5057270;28;20459;-72
2022/07/22 11:26:42;;;;;;;9.53;6.63;;;21.70;99.90;;;;;;5052141;28;20463;-72
2022/07/22 11:29:10;;;;;;;5.67;5.17;;;21.70;99.90;;;;;;5057508;28;21835;-72
2022/07/22 11:31:39;;;;;;;9.27;5.70;;;21.80;99.90;;;;;;5058513;28;20604;-72
2022/07/22 11:34:10;;;;;;;7.90;5.70;;;21.80;99.90;;;;;;5044575;28;20474;-72
2022/07/22 11:36:41;;;;;;;8.00;5.80;;;21.80;99.90;;;;;;5049495;28;20967;-71
2022/07/22 11:39:10;;;;;;;9.33;5.33;;;21.80;99.90;;;;;;5058853;28;20447;-73
2022/07/22 11:41:37;;;;;;;9.30;5.80;;;21.70;99.90;;;;;;5058701;28;20483;-73
2022/07/22 11:44:05;;;;;;;8.83;6.20;;;21.90;99.90;;;;;;5056752;28;20912;-73
2022/07/22 11:46:37;;;;;;;8.70;6.17;;;22.20;99.90;;;;;;5057453;28;20473;-72
2022/07/22 11:49:07;;;;;;;13.47;5.70;;;22.50;99.90;;;;;;5055770;28;20455;-71
2022/07/22 11:51:36;;;;;;;10.50;5.90;;;22.90;99.90;;;;;;5056808;28;20475;-71
2022/07/22 11:54:03;;;;;;;12.27;6.60;;;23.50;99.90;;;;;;5063147;28;20975;-71
2022/07/22 11:56:30;;;;;;;12.70;6.20;;;23.60;99.90;;;;;;5059505;28;20439;-71
2022/07/22 11:58:57;;;;;;;8.60;7.33;;;23.60;99.90;;;;;;5055426;28;20543;-73
2022/07/22 12:01:26;;;;;;;10.93;7.50;;;23.40;99.90;;;;;;5055610;28;20451;-71
2022/07/22 12:03:54;;;;;;;8.37;6.67;;;23.70;99.90;;;;;;5060747;28;20486;-72
2022/07/22 12:06:24;;;;;;;8.07;6.70;;;23.70;99.90;;;;;;5059552;28;20465;-73
2022/07/22 12:08:53;;;;;;;11.80;7.13;;;23.90;99.90;;;;;;5057530;28;20460;-72
2022/07/22 12:11:24;;;;;;;11.80;8.10;;;23.90;99.90;;;;;;5048606;28;20568;-72
2022/07/22 12:13:53;;;;;;;11.90;6.93;;;24.20;99.90;;;;;;5051648;28;20499;-72
2022/07/22 12:16:23;;;;;;;14.23;9.57;;;24.40;99.90;;;;;;5059215;28;20948;-72
2022/07/22 12:18:57;;;;;;;11.53;7.87;;;24.60;99.90;;;;;;5060988;28;20543;-72
2022/07/22 12:21:26;;;;;;;9.07;7.13;;;24.50;99.90;;;;;;5064215;28;20447;-72
2022/07/22 12:23:56;;;;;;;10.00;7.20;;;25.10;99.90;;;;;;5062502;28;20787;-72
2022/07/22 12:26:45;;;;;;;12.10;7.70;;;26.30;99.90;;;;;;5063556;28;20466;-72
2022/07/22 12:29:17;;;;;;;11.10;7.87;;;26.90;99.90;;;;;;5061453;28;20454;-73
2022/07/22 12:31:45;;;;;;;16.73;8.50;;;26.80;99.90;;;;;;5058287;28;20562;-72
2022/07/22 12:34:12;;;;;;;11.70;7.07;;;26.30;99.90;;;;;;5061201;28;20458;-72
2022/07/22 12:36:44;;;;;;;13.07;7.40;;;26.10;99.90;;;;;;5060511;28;20447;-73
2022/07/22 12:39:17;;;;;;;10.97;7.43;;;25.70;99.90;;;;;;5063833;28;20443;-71
2022/07/22 12:41:49;;;;;;;10.63;7.70;;;25.60;99.90;;;;;;5064688;28;20943;-72
2022/07/22 12:44:18;;;;;;;10.10;7.20;;;24.80;99.90;;;;;;5062709;28;20496;-73
2022/07/22 12:46:46;;;;;;;9.70;6.30;;;24.50;99.90;;;;;;5054136;28;20482;-73
2022/07/22 12:49:13;;;;;;;9.50;7.50;;;24.40;99.90;;;;;;5061217;28;20467;-72
2022/07/22 12:51:41;;;;;;;11.40;7.43;;;24.70;99.90;;;;;;5060382;28;20506;-72